Time;durP1;ratioP1;P1;durP2;ratioP2;P2;SDS_P1;SDS_P2;PMS_P1;PMS_P2;Temp;Humidity;BMP_temperature;BMP_pressure;BME280_temperature;BME280_humidity;BME280_pressure;Samples;Min_cycle;Max_cycle;Signal;HPM_P1;HPM_P2
2021/07/02 00:00:49;;;;;;;10.88;9.93;;;;;;;23.84;69.87;100182.56;436226;117;924040;-74
2021/07/02 00:01:53;;;;;;;9.49;8.61;;;;;;;23.83;69.86;100180.91;436767;117;924352;-74
2021/07/02 00:02:57;;;;;;;10.79;9.81;;;;;;;23.82;69.80;100182.08;437422;117;932502;-71
2021/07/02 00:04:00;;;;;;;9.99;9.04;;;;;;;23.81;69.75;100181.25;436996;117;932030;-73
2021/07/02 00:05:04;;;;;;;9.66;8.81;;;;;;;23.82;69.74;100179.30;437694;117;924268;-74
2021/07/02 00:06:08;;;;;;;13.03;9.42;;;;;;;23.81;69.72;100180.42;437247;117;930525;-73
2021/07/02 00:07:12;;;;;;;10.72;9.91;;;;;;;23.82;69.72;100177.30;436922;119;922568;-72
2021/07/02 00:08:16;;;;;;;9.57;8.84;;;;;;;23.83;69.69;100181.74;437552;117;930978;-73
2021/07/02 00:09:19;;;;;;;9.05;8.29;;;;;;;23.84;69.65;100172.26;437439;117;923179;-73
2021/07/02 00:10:24;;;;;;;9.82;9.08;;;;;;;23.86;69.58;100169.17;437865;117;930505;-72
2021/07/02 00:11:28;;;;;;;9.74;9.07;;;;;;;23.88;69.54;100175.23;436281;119;930485;-73
2021/07/02 00:12:32;;;;;;;9.83;8.64;;;;;;;23.90;69.43;100179.36;436910;117;932041;-71
2021/07/02 00:13:38;;;;;;;10.33;9.49;;;;;;;23.90;69.38;100168.22;437452;117;930599;-72
2021/07/02 00:14:41;;;;;;;10.61;9.71;;;;;;;23.90;69.35;100170.19;436101;118;930501;-72
2021/07/02 00:15:45;;;;;;;10.71;9.50;;;;;;;23.89;69.35;100168.53;436346;117;922774;-74
2021/07/02 00:16:49;;;;;;;11.02;9.02;;;;;;;23.87;69.36;100166.05;436932;117;923112;-73
2021/07/02 00:17:52;;;;;;;9.99;9.13;;;;;;;23.84;69.37;100166.69;438217;117;922636;-73
2021/07/02 00:18:56;;;;;;;10.19;9.11;;;;;;;23.82;69.40;100168.16;436670;118;930720;-73
2021/07/02 00:20:00;;;;;;;10.32;8.59;;;;;;;23.79;69.48;100171.55;437563;117;923035;-72
2021/07/02 00:21:04;;;;;;;9.21;8.47;;;;;;;23.77;69.54;100176.59;437037;117;922688;-72
2021/07/02 00:22:08;;;;;;;9.12;8.36;;;;;;;23.76;69.62;100183.32;437423;118;922924;-74
2021/07/02 00:23:11;;;;;;;9.98;8.81;;;;;;;23.72;69.62;100180.31;437250;117;922562;-72
2021/07/02 00:24:15;;;;;;;9.30;8.44;;;;;;;23.69;69.73;100179.00;436456;117;922966;-72
2021/07/02 00:25:19;;;;;;;10.40;9.34;;;;;;;23.67;69.85;100180.43;437625;117;930547;-72
2021/07/02 00:26:23;;;;;;;11.13;10.09;;;;;;;23.66;69.90;100176.82;438689;117;922634;-72
2021/07/02 00:27:26;;;;;;;10.81;9.98;;;;;;;23.66;69.87;100179.60;438533;117;922587;-73
2021/07/02 00:28:30;;;;;;;10.26;9.52;;;;;;;23.68;69.77;100182.91;436980;117;930801;-73
2021/07/02 00:29:33;;;;;;;10.34;9.06;;;;;;;23.68;69.70;100176.52;436940;117;930654;-71
2021/07/02 00:30:39;;;;;;;10.68;9.32;;;;;;;23.68;69.59;100184.87;438097;117;930563;-73
2021/07/02 00:31:42;;;;;;;12.12;9.68;;;;;;;23.65;69.53;100175.16;438307;117;922853;-72
2021/07/02 00:32:46;;;;;;;9.75;8.82;;;;;;;23.63;69.48;100188.59;438959;119;925575;-71
2021/07/02 00:33:49;;;;;;;10.36;9.35;;;;;;;23.61;69.51;100192.80;439120;117;932624;-71
2021/07/02 00:34:55;;;;;;;10.75;9.89;;;;;;;23.59;69.58;100195.92;437455;119;925923;-72
2021/07/02 00:35:59;;;;;;;10.68;9.73;;;;;;;23.56;69.57;100199.31;437154;117;926935;-72
2021/07/02 00:37:03;;;;;;;11.12;10.32;;;;;;;23.54;69.57;100196.00;437767;119;924699;-71
2021/07/02 00:38:07;;;;;;;10.06;9.18;;;;;;;23.53;69.63;100207.46;437808;117;924821;-73
2021/07/02 00:39:11;;;;;;;11.50;10.42;;;;;;;23.53;69.66;100197.16;437908;118;924048;-71
2021/07/02 00:40:16;;;;;;;11.29;10.31;;;;;;;23.55;69.72;100200.44;436649;118;932062;-73
2021/07/02 00:41:20;;;;;;;13.14;11.79;;;;;;;23.56;69.74;100187.34;436850;117;922714;-72
2021/07/02 00:42:24;;;;;;;11.96;10.72;;;;;;;23.58;69.70;100194.27;437649;117;928458;-72
2021/07/02 00:43:28;;;;;;;13.11;11.91;;;;;;;23.61;69.67;100190.02;436302;117;930560;-72
2021/07/02 00:44:44;;;;;;;14.13;11.86;;;;;;;23.63;69.61;100190.55;433837;119;924645;-72
2021/07/02 00:45:48;;;;;;;12.66;11.66;;;;;;;23.63;69.52;100188.59;435887;119;922695;-73
2021/07/02 00:46:52;;;;;;;12.44;11.33;;;;;;;23.65;69.48;100189.08;437325;117;924598;-71
2021/07/02 00:47:56;;;;;;;11.68;10.80;;;;;;;23.64;69.42;100193.03;437525;117;924244;-72
2021/07/02 00:49:00;;;;;;;13.24;11.17;;;;;;;23.64;69.37;100187.46;436694;117;925817;-73
2021/07/02 00:50:06;;;;;;;11.94;10.82;;;;;;;23.65;69.38;100189.08;437157;117;931854;-71
2021/07/02 00:51:10;;;;;;;12.39;11.24;;;;;;;23.66;69.36;100189.91;437234;117;923830;-71
2021/07/02 00:52:14;;;;;;;12.08;10.75;;;;;;;23.66;69.27;100187.13;438403;117;922579;-73
2021/07/02 00:53:22;;;;;;;14.62;11.66;;;;;;;23.64;69.28;100190.24;436585;118;922518;-72
2021/07/02 00:54:25;;;;;;;11.76;10.80;;;;;;;23.63;69.30;100188.59;437458;117;924046;-74
2021/07/02 00:55:29;;;;;;;10.98;10.15;;;;;;;23.62;69.28;100191.67;436527;118;925704;-75
2021/07/02 00:56:33;;;;;;;11.45;10.55;;;;;;;23.58;69.32;100199.00;436887;117;924565;-73
2021/07/02 00:57:37;;;;;;;11.38;10.23;;;;;;;23.55;69.34;100197.66;435952;118;924073;-73
2021/07/02 00:58:41;;;;;;;13.22;10.40;;;;;;;23.51;69.38;100191.06;436953;119;930193;-72
2021/07/02 00:59:45;;;;;;;10.38;9.45;;;;;;;23.48;69.45;100191.70;437640;117;924197;-71
2021/07/02 01:00:50;;;;;;;11.14;10.13;;;;;;;23.46;69.53;100184.78;437538;117;924018;-73
2021/07/02 01:01:54;;;;;;;10.73;9.72;;;;;;;23.44;69.60;100184.23;436626;117;924061;-72
2021/07/02 01:02:58;;;;;;;11.12;10.12;;;;;;;23.43;69.66;100190.95;438771;117;924199;-72
2021/07/02 01:04:02;;;;;;;10.06;9.11;;;;;;;23.42;69.72;100187.34;438251;117;926366;-73
2021/07/02 01:05:09;;;;;;;11.67;10.16;;;;;;;23.43;69.76;100190.95;437113;117;923772;-71
2021/07/02 01:06:16;;;;;;;10.06;9.32;;;;;;;23.44;69.81;100187.01;439001;117;922552;-73
2021/07/02 01:07:20;;;;;;;10.02;9.07;;;;;;;23.45;69.75;100183.92;438049;121;922574;-73
2021/07/02 01:08:24;;;;;;;11.90;9.77;;;;;;;23.45;69.76;100181.14;437778;119;922628;-74
2021/07/02 01:09:28;;;;;;;13.62;9.71;;;;;;;23.46;69.75;100180.05;438777;117;922806;-73
2021/07/02 01:10:32;;;;;;;11.06;10.08;;;;;;;23.47;69.75;100180.88;439241;117;930279;-74
2021/07/02 01:11:39;;;;;;;11.85;9.28;;;;;;;23.46;69.97;100184.78;439717;117;922530;-74
2021/07/02 01:12:45;;;;;;;10.57;9.68;;;;;;;23.46;69.97;100184.78;433912;119;923299;-73
2021/07/02 01:13:49;;;;;;;10.31;9.22;;;;;;;23.45;69.79;100183.92;434564;119;923076;-73
2021/07/02 01:14:53;;;;;;;10.62;9.56;;;;;;;23.43;69.77;100190.95;439615;117;922467;-74
2021/07/02 01:15:56;;;;;;;10.84;9.73;;;;;;;23.40;69.83;100192.38;438478;119;930496;-74
2021/07/02 01:17:01;;;;;;;10.45;9.56;;;;;;;23.37;69.89;100193.01;431874;119;930545;-73
2021/07/02 01:18:07;;;;;;;11.07;10.08;;;;;;;23.34;69.98;100196.39;429564;120;922980;-74
2021/07/02 01:19:14;;;;;;;10.94;9.46;;;;;;;23.31;70.08;100188.67;429455;120;922851;-73
2021/07/02 01:20:21;;;;;;;9.87;8.92;;;;;;;23.31;70.15;100180.33;428338;120;924493;-73
2021/07/02 01:21:25;;;;;;;10.86;9.94;;;;;;;23.31;70.17;100179.50;430609;120;924115;-72
2021/07/02 01:22:29;;;;;;;9.40;8.33;;;;;;;23.30;70.17;100178.67;429118;120;925362;-73
2021/07/02 01:23:34;;;;;;;11.02;9.83;;;;;;;23.31;70.20;100171.98;429609;120;932971;-73
2021/07/02 01:24:38;;;;;;;10.23;9.16;;;;;;;23.30;70.24;100173.11;428999;122;924087;-73
2021/07/02 01:25:43;;;;;;;9.68;8.83;;;;;;;23.29;70.30;100175.06;428388;122;932042;-72
2021/07/02 01:26:49;;;;;;;9.43;8.52;;;;;;;23.30;70.31;100175.89;428221;120;924745;-73
2021/07/02 01:27:53;;;;;;;10.33;9.16;;;;;;;23.31;70.29;100168.38;432202;119;922964;-73
2021/07/02 01:28:57;;;;;;;9.61;8.64;;;;;;;23.30;70.26;100175.89;426538;121;922642;-73
2021/07/02 01:30:01;;;;;;;10.39;9.49;;;;;;;23.28;70.25;100173.41;432705;119;930678;-73
2021/07/02 01:31:05;;;;;;;9.48;8.78;;;;;;;23.27;70.25;100179.28;437989;117;923296;-72
2021/07/02 01:32:10;;;;;;;9.83;9.00;;;;;;;23.25;70.28;100170.44;436975;118;932013;-72
2021/07/02 01:33:16;;;;;;;10.87;9.43;;;;;;;23.22;70.33;100171.86;437774;119;922646;-73
2021/07/02 01:34:21;;;;;;;10.07;9.10;;;;;;;23.20;70.34;100174.15;437739;117;922575;-72
2021/07/02 01:35:26;;;;;;;11.69;9.39;;;;;;;23.18;70.41;100178.36;433530;119;922625;-73
2021/07/02 01:36:30;;;;;;;9.79;9.05;;;;;;;23.18;70.43;100172.80;433735;119;930579;-73
2021/07/02 01:37:36;;;;;;;10.02;9.26;;;;;;;23.18;70.46;100178.36;435984;117;922957;-70
2021/07/02 01:38:41;;;;;;;9.46;8.27;;;;;;;23.16;70.46;100175.87;436332;117;924012;-73
2021/07/02 01:39:45;;;;;;;8.46;7.86;;;;;;;23.18;70.45;100178.36;436441;118;932039;-73
2021/07/02 01:40:49;;;;;;;7.86;7.28;;;;;;;23.17;70.41;100179.48;437829;117;924540;-72
2021/07/02 01:41:53;;;;;;;9.51;7.82;;;;;;;23.16;70.37;100180.61;435478;117;924762;-73
2021/07/02 01:42:58;;;;;;;8.79;7.70;;;;;;;23.13;70.39;100181.23;436349;117;932093;-73
2021/07/02 01:44:02;;;;;;;12.05;7.91;;;;;;;23.12;70.42;100185.15;437583;117;925649;-72
2021/07/02 01:45:54;;;;;;;7.84;7.17;;;;;;;23.17;70.51;100183.09;470123;110;948644;-73
2021/07/02 01:46:58;;;;;;;7.48;6.88;;;;;;;23.03;70.56;100185.05;459570;112;924019;-74
2021/07/02 01:48:03;;;;;;;8.26;7.21;;;;;;;23.01;70.60;100180.91;458229;112;930651;-74
2021/07/02 01:49:08;;;;;;;9.16;7.23;;;;;;;22.98;70.64;100178.76;456235;114;922837;-73
2021/07/02 01:50:14;;;;;;;11.07;8.10;;;;;;;22.97;70.72;100179.88;456583;115;926126;-73
2021/07/02 01:51:17;;;;;;;7.55;6.74;;;;;;;22.95;70.75;100179.35;455526;114;923913;-71
2021/07/02 01:52:22;;;;;;;8.48;7.72;;;;;;;22.96;70.80;100181.01;455296;113;932022;-72
2021/07/02 01:53:27;;;;;;;7.68;7.08;;;;;;;22.97;70.79;100177.92;456568;114;930483;-73
2021/07/02 01:54:31;;;;;;;7.76;7.10;;;;;;;22.98;70.72;100184.31;456532;116;922834;-73
2021/07/02 01:55:35;;;;;;;8.28;7.15;;;;;;;22.99;70.72;100183.19;456132;114;930561;-72
2021/07/02 01:56:47;;;;;;;7.51;6.66;;;;;;;22.99;70.72;100180.41;456543;114;922601;-72
2021/07/02 01:57:46;;;;;;;7.14;6.48;;;;;;;23.00;70.70;100184.81;455971;115;922597;-72
2021/07/02 01:58:53;;;;;;;6.87;6.37;;;;;;;23.01;70.66;100184.52;456534;115;922708;-72
2021/07/02 02:00:10;;;;;;;6.90;6.32;;;;;;;23.02;70.60;100185.34;455310;114;922658;-73
2021/07/02 02:01:15;;;;;;;10.18;6.87;;;;;;;23.03;70.58;100184.22;455871;114;922863;-71
2021/07/02 02:02:20;;;;;;;7.64;6.99;;;;;;;23.03;70.57;100178.66;456151;116;922649;-73
2021/07/02 02:03:26;;;;;;;7.48;6.77;;;;;;;23.03;70.61;100187.00;456733;114;922339;-72
2021/07/02 02:04:30;;;;;;;8.16;7.06;;;;;;;23.04;70.63;100178.36;457008;114;922502;-73
2021/07/02 02:05:34;;;;;;;7.25;6.70;;;;;;;23.06;70.60;100184.42;455709;114;922471;-73
2021/07/02 02:06:40;;;;;;;8.13;7.46;;;;;;;23.08;70.49;100184.13;455621;115;930453;-74
2021/07/02 02:07:44;;;;;;;10.77;6.24;;;;;;;23.06;70.46;100176.08;455641;114;922757;-73
2021/07/02 02:08:47;;;;;;;8.19;7.14;;;;;;;23.07;70.48;100177.73;455875;114;923072;-73
2021/07/02 02:09:53;;;;;;;7.05;6.22;;;;;;;23.07;70.44;100176.91;450837;115;930634;-74
2021/07/02 02:10:57;;;;;;;7.59;6.78;;;;;;;23.05;70.40;100171.64;452761;115;923007;-73
2021/07/02 02:12:03;;;;;;;7.28;6.67;;;;;;;23.05;70.39;100173.59;456631;114;924065;-73
2021/07/02 02:13:09;;;;;;;7.19;6.56;;;;;;;23.03;70.39;100170.31;455711;114;923996;-71
2021/07/02 02:14:13;;;;;;;7.97;6.03;;;;;;;23.02;70.39;100171.44;456530;114;924042;-72
2021/07/02 02:15:18;;;;;;;7.13;6.49;;;;;;;23.01;70.37;100173.39;455691;114;926150;-72
2021/07/02 02:16:25;;;;;;;8.49;6.34;;;;;;;22.99;70.39;100175.64;456286;114;924299;-73
2021/07/02 02:17:30;;;;;;;7.01;6.41;;;;;;;22.99;70.40;100172.07;456384;114;922672;-75
2021/07/02 02:18:33;;;;;;;7.04;6.48;;;;;;;23.00;70.45;100170.91;456495;114;923023;-72
2021/07/02 02:19:37;;;;;;;6.61;6.09;;;;;;;23.02;70.46;100168.66;456447;114;922611;-72
2021/07/02 02:20:41;;;;;;;6.91;6.26;;;;;;;23.03;70.41;100167.53;456705;116;924488;-72
2021/07/02 02:21:45;;;;;;;7.39;6.82;;;;;;;23.05;70.35;100173.59;455580;113;924675;-73
2021/07/02 02:22:49;;;;;;;6.41;5.84;;;;;;;23.08;70.34;100173.00;455617;114;924523;-74
2021/07/02 02:23:53;;;;;;;9.11;6.42;;;;;;;23.09;70.30;100163.53;456216;113;930633;-74
2021/07/02 02:24:56;;;;;;;8.19;6.75;;;;;;;23.10;70.28;100179.09;456675;116;924501;-73
2021/07/02 02:26:00;;;;;;;6.84;5.95;;;;;;;23.10;70.20;100173.52;455782;114;931851;-73
2021/07/02 02:27:04;;;;;;;10.04;6.64;;;;;;;23.10;70.16;100167.96;455748;114;923972;-71
2021/07/02 02:28:08;;;;;;;8.49;7.05;;;;;;;23.11;70.15;100175.15;455685;114;925438;-71
2021/07/02 02:29:12;;;;;;;9.45;7.19;;;;;;;23.11;70.07;100178.76;448838;117;924556;-74
2021/07/02 02:30:18;;;;;;;8.65;7.01;;;;;;;23.11;70.03;100169.59;448663;114;922551;-73
2021/07/02 02:31:22;;;;;;;8.00;7.19;;;;;;;23.11;70.00;100173.20;449355;116;923280;-72
2021/07/02 02:32:28;;;;;;;7.48;6.72;;;;;;;23.12;69.99;100171.23;448389;116;923427;-75
2021/07/02 02:33:32;;;;;;;11.37;7.22;;;;;;;23.13;69.98;100170.94;449896;116;922516;-73
2021/07/02 02:34:35;;;;;;;8.64;7.37;;;;;;;23.13;70.00;100167.33;448777;114;924558;-72
2021/07/02 02:35:39;;;;;;;9.65;7.58;;;;;;;23.15;69.94;100167.86;454706;114;933122;-72
2021/07/02 02:36:43;;;;;;;7.84;7.15;;;;;;;23.16;69.87;100164.75;456359;114;924021;-72
2021/07/02 02:37:47;;;;;;;7.52;6.75;;;;;;;23.17;69.84;100165.58;456847;114;924100;-71
2021/07/02 02:38:50;;;;;;;9.90;7.55;;;;;;;23.21;69.72;100161.06;456369;114;922887;-70
2021/07/02 02:39:54;;;;;;;7.98;7.37;;;;;;;23.27;69.56;100155.07;456107;114;924019;-72
2021/07/02 02:40:58;;;;;;;7.89;7.18;;;;;;;23.25;69.55;100162.92;456157;113;931906;-75
2021/07/02 02:42:02;;;;;;;8.78;7.52;;;;;;;23.23;69.59;100154.05;456564;115;924838;-71
2021/07/02 02:43:06;;;;;;;7.12;6.50;;;;;;;23.21;69.57;100161.06;456398;114;926740;-71
2021/07/02 02:44:10;;;;;;;8.26;7.39;;;;;;;23.21;69.61;100164.64;456745;114;926605;-73
2021/07/02 02:45:15;;;;;;;8.55;7.57;;;;;;;23.21;69.56;100161.06;455936;116;930663;-73
2021/07/02 02:46:19;;;;;;;8.44;7.71;;;;;;;23.23;69.52;100167.13;457226;114;922701;-74
2021/07/02 02:47:23;;;;;;;7.91;7.20;;;;;;;23.21;69.52;100164.64;457481;115;922598;-75
2021/07/02 02:48:27;;;;;;;8.01;7.16;;;;;;;23.21;69.55;100164.64;457569;114;930540;-73
2021/07/02 02:49:31;;;;;;;11.51;7.70;;;;;;;23.20;69.57;100163.02;446979;116;930391;-72
2021/07/02 02:50:37;;;;;;;13.50;6.99;;;;;;;23.20;69.61;100170.54;443092;117;922648;-74
2021/07/02 02:51:41;;;;;;;8.74;7.18;;;;;;;23.19;69.64;100166.93;443816;116;922651;-74
2021/07/02 02:52:45;;;;;;;9.05;8.28;;;;;;;23.19;69.70;100166.93;451330;115;922821;-74
2021/07/02 02:53:48;;;;;;;9.32;7.61;;;;;;;23.19;69.70;100166.93;457233;114;930559;-72
2021/07/02 02:54:52;;;;;;;9.04;7.48;;;;;;;23.19;69.66;100164.15;449998;117;930402;-74
2021/07/02 02:55:56;;;;;;;8.25;7.44;;;;;;;23.18;69.64;100170.84;450709;115;922519;-73
2021/07/02 02:57:07;;;;;;;10.61;7.56;;;;;;;23.18;69.66;100175.58;457531;114;922606;-74
2021/07/02 02:58:12;;;;;;;11.51;7.36;;;;;;;23.18;69.66;100175.58;455826;115;922538;-74
2021/07/02 02:59:16;;;;;;;9.49;8.12;;;;;;;23.17;69.67;100183.09;457012;115;922583;-74
2021/07/02 03:00:21;;;;;;;12.76;7.31;;;;;;;23.17;69.73;100177.53;456985;113;922768;-73
2021/07/02 03:01:24;;;;;;;10.28;7.28;;;;;;;23.19;69.68;100180.02;457733;114;922445;-72
2021/07/02 03:02:29;;;;;;;8.38;7.42;;;;;;;23.19;69.73;100177.23;457549;115;930453;-74
2021/07/02 03:03:32;;;;;;;9.16;8.26;;;;;;;23.20;69.68;100176.93;450353;116;923082;-74
2021/07/02 03:04:38;;;;;;;12.81;8.21;;;;;;;23.19;69.66;100180.02;448920;114;930476;-72
2021/07/02 03:05:42;;;;;;;9.69;8.54;;;;;;;23.21;69.66;100166.63;456554;114;925213;-74
2021/07/02 03:06:46;;;;;;;9.01;8.22;;;;;;;23.21;69.69;100177.76;457029;115;924013;-74
2021/07/02 03:07:52;;;;;;;8.18;7.42;;;;;;;23.21;69.69;100172.20;456666;113;924090;-74
2021/07/02 03:08:57;;;;;;;10.31;8.02;;;;;;;23.23;69.67;100175.47;456172;115;924063;-73
2021/07/02 03:10:01;;;;;;;10.72;9.19;;;;;;;23.24;69.67;100177.13;456930;114;924089;-74
2021/07/02 03:11:05;;;;;;;12.90;7.81;;;;;;;23.25;69.64;100168.48;456373;113;930547;-75
2021/07/02 03:12:09;;;;;;;10.38;8.11;;;;;;;23.27;69.58;100173.72;449704;116;922708;-75
2021/07/02 03:13:15;;;;;;;11.18;8.58;;;;;;;23.28;69.57;100173.41;449366;115;931925;-76
2021/07/02 03:14:22;;;;;;;10.22;8.27;;;;;;;23.28;69.61;100167.02;456528;114;924498;-74
2021/07/02 03:15:27;;;;;;;12.73;9.14;;;;;;;23.29;69.55;100171.45;448147;116;931971;-74
2021/07/02 03:16:32;;;;;;;11.68;8.29;;;;;;;23.31;69.51;100163.64;448428;115;926136;-74
2021/07/02 03:17:36;;;;;;;10.11;8.76;;;;;;;23.34;69.47;100159.40;457949;114;924425;-75
2021/07/02 03:18:40;;;;;;;12.19;8.23;;;;;;;23.35;69.45;100158.27;455301;114;925419;-74
2021/07/02 03:19:44;;;;;;;13.32;8.57;;;;;;;23.37;69.44;100164.36;456318;114;924175;-73
2021/07/02 03:20:48;;;;;;;9.68;8.71;;;;;;;23.38;69.41;100163.20;457662;115;922639;-73
2021/07/02 03:21:52;;;;;;;11.25;8.15;;;;;;;23.41;69.36;100165.38;457617;113;924093;-72
2021/07/02 03:22:55;;;;;;;10.08;8.42;;;;;;;23.41;69.32;100160.64;457272;114;931680;-74
2021/07/02 03:23:59;;;;;;;8.90;7.91;;;;;;;23.41;69.25;100159.81;456904;115;924536;-75
2021/07/02 03:25:05;;;;;;;12.71;9.25;;;;;;;23.42;69.26;100156.73;456936;114;931952;-74
2021/07/02 03:26:09;;;;;;;10.02;8.29;;;;;;;23.43;69.23;100155.57;457801;114;922748;-76
2021/07/02 03:27:14;;;;;;;9.64;8.48;;;;;;;23.46;69.22;100163.34;457055;114;922552;-75
2021/07/02 03:28:17;;;;;;;9.63;8.15;;;;;;;23.48;69.20;100166.66;457331;113;922934;-75
2021/07/02 03:29:21;;;;;;;11.45;9.08;;;;;;;23.51;69.25;100162.41;457752;114;922725;-74
2021/07/02 03:30:26;;;;;;;13.61;9.48;;;;;;;23.54;69.22;100162.60;449789;116;930640;-75
2021/07/02 03:31:29;;;;;;;11.81;8.93;;;;;;;23.57;69.03;100164.78;449893;115;922797;-73
2021/07/02 03:32:33;;;;;;;13.52;9.32;;;;;;;23.58;68.99;100166.44;455605;115;922517;-75
2021/07/02 03:33:37;;;;;;;16.99;10.33;;;;;;;23.59;68.90;100167.27;456046;114;924705;-72
2021/07/02 03:34:46;;;;;;;12.66;10.08;;;;;;;23.58;68.87;100160.87;455837;115;924208;-74
2021/07/02 03:35:52;;;;;;;12.31;11.38;;;;;;;23.58;68.85;100157.26;456676;113;929991;-73
2021/07/02 03:36:55;;;;;;;13.25;10.75;;;;;;;23.57;68.88;100164.78;456438;113;926519;-75
2021/07/02 03:37:59;;;;;;;11.31;10.16;;;;;;;23.57;68.91;100169.52;456779;114;925315;-75
2021/07/02 03:39:04;;;;;;;12.68;10.06;;;;;;;23.56;68.91;100163.13;457284;113;932006;-75
2021/07/02 03:40:11;;;;;;;11.46;10.32;;;;;;;23.58;68.96;100166.44;456718;114;924051;-74
2021/07/02 03:41:17;;;;;;;16.04;9.94;;;;;;;23.60;68.99;100166.09;456242;115;923916;-74
2021/07/02 03:42:21;;;;;;;11.10;9.18;;;;;;;23.61;68.97;100163.02;457430;115;926061;-75
2021/07/02 03:43:25;;;;;;;16.41;9.74;;;;;;;23.62;68.97;100164.67;457208;113;922527;-74
2021/07/02 03:44:29;;;;;;;10.20;9.01;;;;;;;23.63;68.88;100163.54;448416;116;923090;-72
2021/07/02 03:45:32;;;;;;;9.75;8.61;;;;;;;23.64;68.81;100167.15;448658;114;923119;-74
2021/07/02 03:46:38;;;;;;;13.97;9.36;;;;;;;23.65;68.80;100166.02;450778;113;930587;-75
2021/07/02 03:47:41;;;;;;;9.62;8.77;;;;;;;23.65;68.73;100168.80;435444;118;923272;-74
2021/07/02 03:48:45;;;;;;;9.72;8.81;;;;;;;23.66;68.73;100168.47;452668;114;922864;-74
2021/07/02 03:49:49;;;;;;;11.28;8.94;;;;;;;23.68;68.67;100168.99;449227;116;930766;-74
2021/07/02 03:50:53;;;;;;;13.54;8.31;;;;;;;23.71;68.62;100173.09;440728;117;922645;-73
2021/07/02 03:51:57;;;;;;;15.28;8.92;;;;;;;23.72;68.57;100171.14;439917;117;923183;-75
2021/07/02 03:53:01;;;;;;;12.94;8.92;;;;;;;23.75;68.48;100171.36;448459;115;923203;-75
2021/07/02 03:54:04;;;;;;;13.41;7.94;;;;;;;23.78;68.38;100181.03;448032;116;930106;-73
2021/07/02 03:55:09;;;;;;;10.83;9.58;;;;;;;23.81;68.29;100178.47;447869;115;930586;-74
2021/07/02 03:56:13;;;;;;;10.21;8.59;;;;;;;23.83;68.23;100173.39;450373;115;930479;-73
2021/07/02 03:57:19;;;;;;;12.70;8.80;;;;;;;23.86;68.12;100178.35;450892;115;922658;-75
2021/07/02 03:58:22;;;;;;;9.23;8.35;;;;;;;23.95;68.05;100175.63;450576;116;931078;-74
2021/07/02 03:59:25;;;;;;;9.55;8.61;;;;;;;24.00;67.63;100172.73;435927;119;922871;-74
2021/07/02 04:00:31;;;;;;;9.18;8.24;;;;;;;24.00;67.63;100172.73;436560;116;930513;-74
2021/07/02 04:01:35;;;;;;;9.55;7.90;;;;;;;24.06;67.59;100182.62;450620;116;923233;-75
2021/07/02 04:02:39;;;;;;;11.69;8.23;;;;;;;24.10;67.41;100178.88;449886;116;922770;-75
2021/07/02 04:03:43;;;;;;;13.93;7.85;;;;;;;24.15;67.22;100186.30;449787;115;932043;-73
2021/07/02 04:04:48;;;;;;;8.51;7.78;;;;;;;24.19;67.07;100179.01;449464;116;924083;-74
2021/07/02 04:05:51;;;;;;;8.65;7.69;;;;;;;24.25;66.93;100174.97;449087;115;924743;-74
2021/07/02 04:06:55;;;;;;;8.10;7.24;;;;;;;24.29;66.76;100178.76;449085;116;925940;-73
2021/07/02 04:07:58;;;;;;;15.00;7.99;;;;;;;24.35;66.66;100168.31;449929;116;926454;-75
2021/07/02 04:09:02;;;;;;;10.92;7.81;;;;;;;24.41;66.50;100175.41;448241;116;924117;-74
2021/07/02 04:10:06;;;;;;;13.38;7.90;;;;;;;24.46;66.36;100173.33;448438;116;923835;-76
2021/07/02 04:11:10;;;;;;;43.51;10.38;;;;;;;24.53;66.22;100180.42;448769;115;925671;-74
2021/07/02 04:12:13;;;;;;;28.41;9.01;;;;;;;24.57;66.13;100173.06;448584;115;924545;-74
2021/07/02 04:13:17;;;;;;;11.94;7.49;;;;;;;24.62;66.09;100175.72;448401;116;925608;-74
2021/07/02 04:14:21;;;;;;;11.86;8.12;;;;;;;24.67;65.76;100178.38;447508;115;932027;-74
2021/07/02 04:15:24;;;;;;;14.23;8.35;;;;;;;24.69;65.60;100182.50;448290;115;931572;-75
2021/07/02 04:16:29;;;;;;;10.82;7.98;;;;;;;24.71;65.48;100185.77;447414;115;923321;-74
2021/07/02 04:17:32;;;;;;;10.31;7.60;;;;;;;24.74;65.28;100185.16;446476;116;924172;-74
2021/07/02 04:18:37;;;;;;;11.72;7.23;;;;;;;24.75;65.13;100181.23;448338;115;924484;-73
2021/07/02 04:19:40;;;;;;;8.61;7.81;;;;;;;24.78;64.96;100188.95;449958;116;922743;-72
2021/07/02 04:20:44;;;;;;;10.82;7.34;;;;;;;24.79;64.78;100187.81;450807;115;926429;-74
2021/07/02 04:21:48;;;;;;;8.78;7.35;;;;;;;24.81;64.71;100198.66;451152;115;923976;-73
2021/07/02 04:22:53;;;;;;;11.57;6.88;;;;;;;24.82;64.40;100192.73;450046;115;926180;-73
2021/07/02 04:23:57;;;;;;;12.25;8.04;;;;;;;24.84;64.26;100198.00;450281;114;925423;-73
2021/07/02 04:25:00;;;;;;;13.88;8.84;;;;;;;24.87;63.95;100194.56;449657;115;931535;-74
2021/07/02 04:26:04;;;;;;;10.25;9.33;;;;;;;24.88;63.77;100187.88;448928;116;925570;-74
2021/07/02 04:27:07;;;;;;;15.33;10.18;;;;;;;24.90;63.74;100196.76;449593;115;924148;-74
2021/07/02 04:28:11;;;;;;;21.74;9.63;;;;;;;24.92;63.64;100191.67;448373;116;932145;-73
2021/07/02 04:29:17;;;;;;;13.46;11.16;;;;;;;24.94;63.58;100192.18;449237;116;924684;-73
2021/07/02 04:30:21;;;;;;;13.96;12.62;;;;;;;24.97;63.36;100202.72;449702;116;924040;-74
2021/07/02 04:31:27;;;;;;;16.69;11.29;;;;;;;24.99;63.14;100208.78;447621;115;924079;-74
2021/07/02 04:32:31;;;;;;;13.20;10.91;;;;;;;25.01;62.85;100203.72;448068;116;933488;-73
2021/07/02 04:33:35;;;;;;;10.21;9.05;;;;;;;25.03;62.71;100200.61;448213;115;924499;-74
2021/07/02 04:34:38;;;;;;;19.01;10.13;;;;;;;25.03;62.60;100197.83;447892;116;933314;-74
2021/07/02 04:35:42;;;;;;;9.86;8.94;;;;;;;25.04;62.60;100197.48;448773;115;924746;-73
2021/07/02 04:36:46;;;;;;;10.52;9.19;;;;;;;25.05;62.58;100199.13;447418;115;925414;-73
2021/07/02 04:37:49;;;;;;;13.71;9.91;;;;;;;25.05;62.61;100201.09;448996;115;932026;-73
2021/07/02 04:38:55;;;;;;;13.52;9.57;;;;;;;25.07;62.58;100208.02;446569;115;924061;-74
2021/07/02 04:39:58;;;;;;;16.71;10.11;;;;;;;25.07;62.59;100202.44;448774;115;931822;-73
2021/07/02 04:41:02;;;;;;;10.74;9.73;;;;;;;25.07;62.73;100202.44;450043;115;924575;-74
2021/07/02 04:42:06;;;;;;;19.51;9.66;;;;;;;25.08;62.80;100201.30;450969;115;931978;-74
2021/07/02 04:43:10;;;;;;;10.52;8.91;;;;;;;25.09;62.81;100210.47;450941;116;932606;-74
2021/07/02 04:44:13;;;;;;;15.53;9.78;;;;;;;25.08;62.78;100201.30;450865;115;924129;-73
2021/07/02 04:45:17;;;;;;;12.37;10.98;;;;;;;25.07;62.88;100199.65;448861;116;932807;-73
2021/07/02 04:46:21;;;;;;;14.37;9.77;;;;;;;25.06;63.06;100211.95;449724;116;930477;-73
2021/07/02 04:47:25;;;;;;;11.26;8.44;;;;;;;25.06;63.26;100205.54;455383;116;922870;-74
2021/07/02 04:48:29;;;;;;;12.16;8.21;;;;;;;25.04;63.28;100203.06;454535;114;923378;-74
2021/07/02 04:49:34;;;;;;;13.21;8.64;;;;;;;25.04;63.30;100208.64;453951;114;922808;-74
2021/07/02 04:50:39;;;;;;;9.16;8.06;;;;;;;25.04;63.34;100207.81;454309;116;923270;-75
2021/07/02 04:51:43;;;;;;;10.34;8.69;;;;;;;25.03;63.26;100209.78;455138;114;930555;-73
2021/07/02 04:52:46;;;;;;;10.90;8.63;;;;;;;25.03;63.23;100206.98;454392;116;922849;-74
2021/07/02 04:53:50;;;;;;;12.00;8.01;;;;;;;25.05;63.22;100209.47;454762;116;930894;-74
2021/07/02 04:54:53;;;;;;;9.56;8.66;;;;;;;25.05;63.21;100210.30;454474;116;930073;-76